sensor_id;sensor_type;location;lat;lon;timestamp;P1;durP1;ratioP1;P2;durP2;ratioP2
7881;SDS011;3986;41.884;23.466;2022-10-04T00:02:16;24.40;;;12.83;;
7881;SDS011;3986;41.884;23.466;2022-10-04T00:04:50;14.60;;;9.40;;
7881;SDS011;3986;41.884;23.466;2022-10-04T00:07:22;13.90;;;9.87;;
7881;SDS011;3986;41.884;23.466;2022-10-04T00:09:53;27.83;;;17.67;;
7881;SDS011;3986;41.884;23.466;2022-10-04T00:12:23;24.40;;;16.57;;
7881;SDS011;3986;41.884;23.466;2022-10-04T00:14:51;28.60;;;19.03;;
7881;SDS011;3986;41.884;23.466;2022-10-04T00:17:21;29.23;;;20.60;;
7881;SDS011;3986;41.884;23.466;2022-10-04T00:19:52;26.00;;;20.00;;
7881;SDS011;3986;41.884;23.466;2022-10-04T00:22:21;28.13;;;25.20;;
7881;SDS011;3986;41.884;23.466;2022-10-04T00:24:59;41.27;;;31.00;;
7881;SDS011;3986;41.884;23.466;2022-10-04T00:33:50;20.83;;;18.40;;
7881;SDS011;3986;41.884;23.466;2022-10-04T00:36:36;24.70;;;19.00;;
7881;SDS011;3986;41.884;23.466;2022-10-04T00:39:12;21.43;;;18.00;;
7881;SDS011;3986;41.884;23.466;2022-10-04T00:44:57;22.03;;;19.63;;
7881;SDS011;3986;41.884;23.466;2022-10-04T00:47:27;29.07;;;19.63;;
7881;SDS011;3986;41.884;23.466;2022-10-04T00:50:01;27.43;;;19.70;;
7881;SDS011;3986;41.884;23.466;2022-10-04T00:52:41;20.40;;;18.30;;
7881;SDS011;3986;41.884;23.466;2022-10-04T00:55:17;20.53;;;18.37;;
7881;SDS011;3986;41.884;23.466;2022-10-04T00:57:49;22.77;;;18.87;;
7881;SDS011;3986;41.884;23.466;2022-10-04T01:00:20;20.10;;;16.23;;
7881;SDS011;3986;41.884;23.466;2022-10-04T01:02:49;24.17;;;17.43;;
7881;SDS011;3986;41.884;23.466;2022-10-04T01:05:18;20.33;;;15.23;;
7881;SDS011;3986;41.884;23.466;2022-10-04T01:07:53;19.00;;;14.33;;
7881;SDS011;3986;41.884;23.466;2022-10-04T01:10:24;22.77;;;15.33;;
7881;SDS011;3986;41.884;23.466;2022-10-04T01:12:55;22.00;;;15.53;;
7881;SDS011;3986;41.884;23.466;2022-10-04T01:15:27;16.70;;;12.83;;
7881;SDS011;3986;41.884;23.466;2022-10-04T01:18:05;13.60;;;12.17;;
7881;SDS011;3986;41.884;23.466;2022-10-04T01:20:39;13.97;;;12.50;;
7881;SDS011;3986;41.884;23.466;2022-10-04T01:29:06;17.13;;;15.40;;
7881;SDS011;3986;41.884;23.466;2022-10-04T01:31:38;13.40;;;12.17;;
7881;SDS011;3986;41.884;23.466;2022-10-04T01:34:07;11.80;;;10.70;;
7881;SDS011;3986;41.884;23.466;2022-10-04T01:36:34;13.30;;;11.43;;
7881;SDS011;3986;41.884;23.466;2022-10-04T01:39:02;12.63;;;11.30;;
7881;SDS011;3986;41.884;23.466;2022-10-04T01:41:31;13.33;;;12.00;;
7881;SDS011;3986;41.884;23.466;2022-10-04T01:44:05;15.70;;;14.00;;
7881;SDS011;3986;41.884;23.466;2022-10-04T01:46:36;17.93;;;14.63;;
7881;SDS011;3986;41.884;23.466;2022-10-04T01:49:06;15.50;;;13.90;;
7881;SDS011;3986;41.884;23.466;2022-10-04T01:51:37;15.30;;;13.90;;
7881;SDS011;3986;41.884;23.466;2022-10-04T01:54:10;15.73;;;14.27;;
7881;SDS011;3986;41.884;23.466;2022-10-04T01:56:45;18.33;;;16.03;;
7881;SDS011;3986;41.884;23.466;2022-10-04T01:59:16;21.60;;;17.90;;
7881;SDS011;3986;41.884;23.466;2022-10-04T02:01:48;25.40;;;21.70;;
7881;SDS011;3986;41.884;23.466;2022-10-04T02:04:18;26.13;;;23.10;;
7881;SDS011;3986;41.884;23.466;2022-10-04T02:06:49;34.13;;;23.53;;
7881;SDS011;3986;41.884;23.466;2022-10-04T02:09:18;31.57;;;21.23;;
7881;SDS011;3986;41.884;23.466;2022-10-04T02:11:50;28.97;;;18.93;;
7881;SDS011;3986;41.884;23.466;2022-10-04T02:14:19;24.87;;;18.87;;
7881;SDS011;3986;41.884;23.466;2022-10-04T02:16:49;19.73;;;17.57;;
7881;SDS011;3986;41.884;23.466;2022-10-04T02:19:18;20.97;;;17.47;;
7881;SDS011;3986;41.884;23.466;2022-10-04T02:21:47;23.67;;;18.87;;
7881;SDS011;3986;41.884;23.466;2022-10-04T02:24:15;25.23;;;20.40;;
7881;SDS011;3986;41.884;23.466;2022-10-04T02:26:47;23.50;;;21.30;;
7881;SDS011;3986;41.884;23.466;2022-10-04T02:29:16;24.10;;;21.70;;
7881;SDS011;3986;41.884;23.466;2022-10-04T02:31:44;16.83;;;15.23;;
7881;SDS011;3986;41.884;23.466;2022-10-04T02:34:29;20.43;;;14.63;;
7881;SDS011;3986;41.884;23.466;2022-10-04T02:36:57;18.43;;;13.07;;
7881;SDS011;3986;41.884;23.466;2022-10-04T02:39:29;18.30;;;13.90;;
7881;SDS011;3986;41.884;23.466;2022-10-04T02:42:01;17.27;;;12.93;;
7881;SDS011;3986;41.884;23.466;2022-10-04T02:44:36;14.83;;;11.20;;
7881;SDS011;3986;41.884;23.466;2022-10-04T02:47:08;14.73;;;13.07;;
7881;SDS011;3986;41.884;23.466;2022-10-04T02:49:43;15.57;;;13.83;;
7881;SDS011;3986;41.884;23.466;2022-10-04T02:52:13;20.13;;;17.30;;
7881;SDS011;3986;41.884;23.466;2022-10-04T02:54:48;30.40;;;27.33;;
7881;SDS011;3986;41.884;23.466;2022-10-04T02:57:21;28.80;;;25.47;;
7881;SDS011;3986;41.884;23.466;2022-10-04T02:59:49;35.90;;;32.20;;
7881;SDS011;3986;41.884;23.466;2022-10-04T03:02:21;39.73;;;36.03;;
7881;SDS011;3986;41.884;23.466;2022-10-04T03:04:49;42.63;;;38.40;;
7881;SDS011;3986;41.884;23.466;2022-10-04T03:07:18;37.47;;;33.80;;
7881;SDS011;3986;41.884;23.466;2022-10-04T03:09:47;27.97;;;25.07;;
7881;SDS011;3986;41.884;23.466;2022-10-04T03:12:15;24.90;;;22.50;;
7881;SDS011;3986;41.884;23.466;2022-10-04T03:14:43;22.57;;;20.33;;
7881;SDS011;3986;41.884;23.466;2022-10-04T03:17:12;20.20;;;18.27;;
7881;SDS011;3986;41.884;23.466;2022-10-04T03:19:41;53.23;;;48.97;;
7881;SDS011;3986;41.884;23.466;2022-10-04T03:22:10;54.67;;;50.10;;
7881;SDS011;3986;41.884;23.466;2022-10-04T03:24:38;43.17;;;38.60;;
7881;SDS011;3986;41.884;23.466;2022-10-04T03:27:11;28.70;;;26.10;;
7881;SDS011;3986;41.884;23.466;2022-10-04T03:29:41;26.53;;;23.87;;
7881;SDS011;3986;41.884;23.466;2022-10-04T03:32:10;66.93;;;60.07;;
7881;SDS011;3986;41.884;23.466;2022-10-04T03:34:40;60.27;;;54.83;;
7881;SDS011;3986;41.884;23.466;2022-10-04T03:37:13;50.90;;;46.40;;
7881;SDS011;3986;41.884;23.466;2022-10-04T03:39:44;55.73;;;51.13;;
7881;SDS011;3986;41.884;23.466;2022-10-04T03:42:12;52.50;;;47.93;;
7881;SDS011;3986;41.884;23.466;2022-10-04T03:44:41;59.67;;;54.50;;
7881;SDS011;3986;41.884;23.466;2022-10-04T03:47:11;53.67;;;49.07;;
7881;SDS011;3986;41.884;23.466;2022-10-04T03:49:41;56.47;;;51.07;;
7881;SDS011;3986;41.884;23.466;2022-10-04T03:52:13;36.70;;;33.43;;
7881;SDS011;3986;41.884;23.466;2022-10-04T03:54:45;33.73;;;30.63;;
7881;SDS011;3986;41.884;23.466;2022-10-04T03:57:13;40.93;;;37.23;;
7881;SDS011;3986;41.884;23.466;2022-10-04T03:59:41;42.83;;;38.90;;
7881;SDS011;3986;41.884;23.466;2022-10-04T04:02:09;42.43;;;38.17;;
7881;SDS011;3986;41.884;23.466;2022-10-04T04:04:44;41.93;;;37.97;;
7881;SDS011;3986;41.884;23.466;2022-10-04T04:07:18;33.53;;;30.67;;
7881;SDS011;3986;41.884;23.466;2022-10-04T04:09:50;33.83;;;30.77;;
7881;SDS011;3986;41.884;23.466;2022-10-04T04:12:23;28.53;;;25.43;;
7881;SDS011;3986;41.884;23.466;2022-10-04T04:14:58;32.70;;;29.70;;
7881;SDS011;3986;41.884;23.466;2022-10-04T04:17:33;33.40;;;30.43;;
7881;SDS011;3986;41.884;23.466;2022-10-04T04:20:04;33.07;;;30.07;;
7881;SDS011;3986;41.884;23.466;2022-10-04T04:22:40;30.97;;;28.37;;
7881;SDS011;3986;41.884;23.466;2022-10-04T04:25:11;32.57;;;29.67;;
7881;SDS011;3986;41.884;23.466;2022-10-04T04:27:41;33.47;;;30.63;;
7881;SDS011;3986;41.884;23.466;2022-10-04T04:30:14;31.77;;;29.17;;
7881;SDS011;3986;41.884;23.466;2022-10-04T04:32:45;35.20;;;32.10;;
7881;SDS011;3986;41.884;23.466;2022-10-04T04:35:20;34.03;;;30.83;;
7881;SDS011;3986;41.884;23.466;2022-10-04T04:38:01;36.90;;;33.73;;
7881;SDS011;3986;41.884;23.466;2022-10-04T04:40:38;36.83;;;33.43;;
7881;SDS011;3986;41.884;23.466;2022-10-04T04:43:05;44.30;;;37.93;;
7881;SDS011;3986;41.884;23.466;2022-10-04T04:45:38;36.87;;;33.13;;
7881;SDS011;3986;41.884;23.466;2022-10-04T04:48:06;38.30;;;32.57;;
7881;SDS011;3986;41.884;23.466;2022-10-04T04:50:38;56.13;;;42.07;;
7881;SDS011;3986;41.884;23.466;2022-10-04T04:53:07;55.83;;;48.00;;
7881;SDS011;3986;41.884;23.466;2022-10-04T04:55:38;52.87;;;47.33;;
7881;SDS011;3986;41.884;23.466;2022-10-04T04:58:09;48.97;;;42.27;;
7881;SDS011;3986;41.884;23.466;2022-10-04T05:00:53;63.40;;;57.00;;
7881;SDS011;3986;41.884;23.466;2022-10-04T05:03:23;56.33;;;50.67;;
7881;SDS011;3986;41.884;23.466;2022-10-04T05:05:50;66.13;;;59.83;;
7881;SDS011;3986;41.884;23.466;2022-10-04T05:08:19;57.27;;;52.17;;
7881;SDS011;3986;41.884;23.466;2022-10-04T05:10:48;55.63;;;39.10;;
7881;SDS011;3986;41.884;23.466;2022-10-04T05:13:19;43.40;;;39.13;;
7881;SDS011;3986;41.884;23.466;2022-10-04T05:15:47;37.70;;;34.20;;
7881;SDS011;3986;41.884;23.466;2022-10-04T05:18:27;39.30;;;35.63;;
7881;SDS011;3986;41.884;23.466;2022-10-04T05:20:58;41.27;;;37.03;;
7881;SDS011;3986;41.884;23.466;2022-10-04T05:23:31;38.43;;;33.07;;
7881;SDS011;3986;41.884;23.466;2022-10-04T05:25:58;41.10;;;31.47;;
7881;SDS011;3986;41.884;23.466;2022-10-04T05:28:26;36.93;;;33.03;;
7881;SDS011;3986;41.884;23.466;2022-10-04T05:30:58;36.30;;;32.60;;
7881;SDS011;3986;41.884;23.466;2022-10-04T05:33:38;44.87;;;40.20;;
7881;SDS011;3986;41.884;23.466;2022-10-04T05:36:29;42.30;;;37.40;;
7881;SDS011;3986;41.884;23.466;2022-10-04T05:39:11;46.03;;;36.43;;
7881;SDS011;3986;41.884;23.466;2022-10-04T05:41:45;40.83;;;36.80;;
7881;SDS011;3986;41.884;23.466;2022-10-04T05:44:21;40.27;;;36.30;;
7881;SDS011;3986;41.884;23.466;2022-10-04T05:46:52;32.27;;;29.30;;
7881;SDS011;3986;41.884;23.466;2022-10-04T05:49:23;36.33;;;32.63;;
7881;SDS011;3986;41.884;23.466;2022-10-04T05:51:54;45.00;;;35.70;;
7881;SDS011;3986;41.884;23.466;2022-10-04T05:54:26;61.17;;;45.37;;
7881;SDS011;3986;41.884;23.466;2022-10-04T05:57:05;51.20;;;46.33;;
7881;SDS011;3986;41.884;23.466;2022-10-04T05:59:56;42.43;;;38.23;;
7881;SDS011;3986;41.884;23.466;2022-10-04T06:02:46;50.23;;;42.40;;
7881;SDS011;3986;41.884;23.466;2022-10-04T06:05:30;36.13;;;32.83;;
7881;SDS011;3986;41.884;23.466;2022-10-04T06:08:07;35.70;;;28.53;;
7881;SDS011;3986;41.884;23.466;2022-10-04T06:16:30;30.30;;;26.30;;
7881;SDS011;3986;41.884;23.466;2022-10-04T06:22:05;43.00;;;27.60;;
7881;SDS011;3986;41.884;23.466;2022-10-04T06:24:42;46.73;;;27.47;;
7881;SDS011;3986;41.884;23.466;2022-10-04T06:27:16;38.03;;;28.40;;
7881;SDS011;3986;41.884;23.466;2022-10-04T06:29:48;45.40;;;28.47;;
7881;SDS011;3986;41.884;23.466;2022-10-04T06:32:30;25.23;;;22.10;;
7881;SDS011;3986;41.884;23.466;2022-10-04T06:35:38;26.23;;;21.83;;
7881;SDS011;3986;41.884;23.466;2022-10-04T06:38:33;34.67;;;29.00;;
7881;SDS011;3986;41.884;23.466;2022-10-04T06:41:29;40.77;;;36.33;;
7881;SDS011;3986;41.884;23.466;2022-10-04T06:47:05;43.73;;;36.97;;
7881;SDS011;3986;41.884;23.466;2022-10-04T06:49:45;39.50;;;35.83;;
7881;SDS011;3986;41.884;23.466;2022-10-04T06:52:25;46.50;;;41.93;;
7881;SDS011;3986;41.884;23.466;2022-10-04T06:55:18;42.70;;;38.13;;
7881;SDS011;3986;41.884;23.466;2022-10-04T07:01:05;32.93;;;29.47;;
7881;SDS011;3986;41.884;23.466;2022-10-04T07:03:48;33.93;;;24.80;;
7881;SDS011;3986;41.884;23.466;2022-10-04T07:06:20;21.20;;;16.67;;
7881;SDS011;3986;41.884;23.466;2022-10-04T07:08:52;21.70;;;15.87;;
7881;SDS011;3986;41.884;23.466;2022-10-04T07:11:26;20.03;;;10.03;;
7881;SDS011;3986;41.884;23.466;2022-10-04T07:13:58;18.23;;;7.87;;
7881;SDS011;3986;41.884;23.466;2022-10-04T07:16:33;26.37;;;7.57;;
7881;SDS011;3986;41.884;23.466;2022-10-04T07:19:06;30.23;;;11.17;;
7881;SDS011;3986;41.884;23.466;2022-10-04T07:21:52;31.17;;;11.27;;
7881;SDS011;3986;41.884;23.466;2022-10-04T07:24:25;13.50;;;8.40;;
7881;SDS011;3986;41.884;23.466;2022-10-04T07:27:08;19.57;;;6.00;;
7881;SDS011;3986;41.884;23.466;2022-10-04T07:29:38;15.20;;;5.50;;
7881;SDS011;3986;41.884;23.466;2022-10-04T07:32:10;17.67;;;7.67;;
7881;SDS011;3986;41.884;23.466;2022-10-04T07:34:42;20.13;;;6.23;;
7881;SDS011;3986;41.884;23.466;2022-10-04T07:37:13;21.30;;;6.17;;
7881;SDS011;3986;41.884;23.466;2022-10-04T07:39:43;31.97;;;9.30;;
7881;SDS011;3986;41.884;23.466;2022-10-04T07:42:19;14.40;;;6.47;;
7881;SDS011;3986;41.884;23.466;2022-10-04T07:44:54;18.13;;;5.40;;
7881;SDS011;3986;41.884;23.466;2022-10-04T07:47:28;15.60;;;5.00;;
7881;SDS011;3986;41.884;23.466;2022-10-04T07:49:57;22.60;;;6.50;;
7881;SDS011;3986;41.884;23.466;2022-10-04T07:52:37;15.40;;;5.77;;
7881;SDS011;3986;41.884;23.466;2022-10-04T07:55:16;21.40;;;12.00;;
7881;SDS011;3986;41.884;23.466;2022-10-04T07:58:04;10.70;;;4.50;;
7881;SDS011;3986;41.884;23.466;2022-10-04T08:00:43;20.83;;;6.60;;
7881;SDS011;3986;41.884;23.466;2022-10-04T08:06:12;29.05;;;6.20;;
7881;SDS011;3986;41.884;23.466;2022-10-04T08:11:43;22.48;;;5.75;;
7881;SDS011;3986;41.884;23.466;2022-10-04T08:14:26;43.53;;;9.80;;
7881;SDS011;3986;41.884;23.466;2022-10-04T08:17:04;31.85;;;9.57;;
7881;SDS011;3986;41.884;23.466;2022-10-04T08:19:45;27.20;;;9.95;;
7881;SDS011;3986;41.884;23.466;2022-10-04T08:22:27;22.70;;;6.05;;
7881;SDS011;3986;41.884;23.466;2022-10-04T08:25:04;16.58;;;8.00;;
7881;SDS011;3986;41.884;23.466;2022-10-04T08:27:50;24.98;;;6.60;;
7881;SDS011;3986;41.884;23.466;2022-10-04T08:30:45;29.02;;;16.33;;
7881;SDS011;3986;41.884;23.466;2022-10-04T08:33:29;24.63;;;13.27;;
7881;SDS011;3986;41.884;23.466;2022-10-04T08:36:15;28.67;;;10.35;;
7881;SDS011;3986;41.884;23.466;2022-10-04T08:38:51;31.25;;;10.38;;
7881;SDS011;3986;41.884;23.466;2022-10-04T08:44:38;27.75;;;7.60;;
7881;SDS011;3986;41.884;23.466;2022-10-04T08:57:20;33.33;;;6.75;;
7881;SDS011;3986;41.884;23.466;2022-10-04T09:00:12;37.03;;;6.68;;
7881;SDS011;3986;41.884;23.466;2022-10-04T09:02:48;45.15;;;7.20;;
7881;SDS011;3986;41.884;23.466;2022-10-04T09:11:48;40.53;;;6.10;;
7881;SDS011;3986;41.884;23.466;2022-10-04T09:17:28;22.42;;;5.80;;
7881;SDS011;3986;41.884;23.466;2022-10-04T09:20:18;45.13;;;6.13;;
7881;SDS011;3986;41.884;23.466;2022-10-04T09:22:52;96.13;;;11.02;;
7881;SDS011;3986;41.884;23.466;2022-10-04T09:25:25;71.75;;;7.22;;
7881;SDS011;3986;41.884;23.466;2022-10-04T09:28:22;40.17;;;5.30;;
7881;SDS011;3986;41.884;23.466;2022-10-04T09:31:23;85.30;;;8.85;;
7881;SDS011;3986;41.884;23.466;2022-10-04T09:34:20;62.45;;;8.50;;
7881;SDS011;3986;41.884;23.466;2022-10-04T09:39:54;52.10;;;9.85;;
7881;SDS011;3986;41.884;23.466;2022-10-04T09:45:51;48.92;;;6.35;;
7881;SDS011;3986;41.884;23.466;2022-10-04T09:48:29;25.98;;;4.78;;
7881;SDS011;3986;41.884;23.466;2022-10-04T09:51:15;58.55;;;7.25;;
7881;SDS011;3986;41.884;23.466;2022-10-04T09:53:56;46.85;;;6.70;;
7881;SDS011;3986;41.884;23.466;2022-10-04T10:02:39;88.50;;;7.63;;
7881;SDS011;3986;41.884;23.466;2022-10-04T10:05:17;67.15;;;6.82;;
7881;SDS011;3986;41.884;23.466;2022-10-04T10:08:07;50.13;;;6.82;;
7881;SDS011;3986;41.884;23.466;2022-10-04T10:10:42;51.50;;;7.90;;
7881;SDS011;3986;41.884;23.466;2022-10-04T10:13:51;63.55;;;8.20;;
7881;SDS011;3986;41.884;23.466;2022-10-04T10:16:41;47.50;;;5.80;;
7881;SDS011;3986;41.884;23.466;2022-10-04T10:19:27;104.18;;;9.50;;
7881;SDS011;3986;41.884;23.466;2022-10-04T10:22:14;21.75;;;4.35;;
7881;SDS011;3986;41.884;23.466;2022-10-04T10:27:59;25.90;;;4.07;;
7881;SDS011;3986;41.884;23.466;2022-10-04T10:30:39;29.35;;;5.00;;
7881;SDS011;3986;41.884;23.466;2022-10-04T10:33:31;49.00;;;5.75;;
7881;SDS011;3986;41.884;23.466;2022-10-04T10:42:21;35.45;;;4.95;;
7881;SDS011;3986;41.884;23.466;2022-10-04T10:48:04;43.03;;;5.25;;
7881;SDS011;3986;41.884;23.466;2022-10-04T10:50:50;110.00;;;9.45;;
7881;SDS011;3986;41.884;23.466;2022-10-04T10:53:36;35.00;;;5.82;;
7881;SDS011;3986;41.884;23.466;2022-10-04T10:56:29;30.90;;;4.85;;
7881;SDS011;3986;41.884;23.466;2022-10-04T10:59:11;30.73;;;4.70;;
7881;SDS011;3986;41.884;23.466;2022-10-04T11:05:13;21.50;;;4.50;;
7881;SDS011;3986;41.884;23.466;2022-10-04T11:08:03;36.00;;;5.20;;
7881;SDS011;3986;41.884;23.466;2022-10-04T11:10:56;34.83;;;4.63;;
7881;SDS011;3986;41.884;23.466;2022-10-04T11:13:51;25.58;;;4.22;;
7881;SDS011;3986;41.884;23.466;2022-10-04T11:16:43;81.05;;;8.15;;
7881;SDS011;3986;41.884;23.466;2022-10-04T11:19:40;29.30;;;4.47;;
7881;SDS011;3986;41.884;23.466;2022-10-04T11:26:03;34.88;;;5.07;;
7881;SDS011;3986;41.884;23.466;2022-10-04T11:28:52;22.45;;;4.10;;
7881;SDS011;3986;41.884;23.466;2022-10-04T11:34:36;41.30;;;5.45;;
7881;SDS011;3986;41.884;23.466;2022-10-04T11:37:40;19.48;;;3.83;;
7881;SDS011;3986;41.884;23.466;2022-10-04T11:40:21;34.20;;;4.72;;
7881;SDS011;3986;41.884;23.466;2022-10-04T11:43:05;31.92;;;4.78;;
7881;SDS011;3986;41.884;23.466;2022-10-04T11:45:55;11.50;;;3.55;;
7881;SDS011;3986;41.884;23.466;2022-10-04T11:48:37;31.88;;;5.15;;
7881;SDS011;3986;41.884;23.466;2022-10-04T11:51:37;31.35;;;5.05;;
7881;SDS011;3986;41.884;23.466;2022-10-04T11:54:37;18.25;;;3.83;;
7881;SDS011;3986;41.884;23.466;2022-10-04T11:57:29;71.03;;;8.20;;
7881;SDS011;3986;41.884;23.466;2022-10-04T12:00:07;21.40;;;4.15;;
7881;SDS011;3986;41.884;23.466;2022-10-04T12:05:50;16.77;;;3.88;;
7881;SDS011;3986;41.884;23.466;2022-10-04T12:08:31;35.85;;;5.47;;
7881;SDS011;3986;41.884;23.466;2022-10-04T12:14:35;43.17;;;5.68;;
7881;SDS011;3986;41.884;23.466;2022-10-04T12:17:29;49.50;;;6.88;;
7881;SDS011;3986;41.884;23.466;2022-10-04T12:20:25;37.58;;;5.43;;
7881;SDS011;3986;41.884;23.466;2022-10-04T12:23:18;31.77;;;6.13;;
7881;SDS011;3986;41.884;23.466;2022-10-04T12:26:05;42.30;;;6.25;;
7881;SDS011;3986;41.884;23.466;2022-10-04T12:31:56;25.15;;;5.28;;
7881;SDS011;3986;41.884;23.466;2022-10-04T12:34:32;28.88;;;5.45;;
7881;SDS011;3986;41.884;23.466;2022-10-04T12:37:13;40.22;;;5.45;;
7881;SDS011;3986;41.884;23.466;2022-10-04T12:39:52;38.58;;;5.05;;
7881;SDS011;3986;41.884;23.466;2022-10-04T12:42:43;40.70;;;5.50;;
7881;SDS011;3986;41.884;23.466;2022-10-04T12:45:23;38.83;;;5.65;;
7881;SDS011;3986;41.884;23.466;2022-10-04T12:48:01;56.25;;;7.70;;
7881;SDS011;3986;41.884;23.466;2022-10-04T12:50:43;20.45;;;5.45;;
7881;SDS011;3986;41.884;23.466;2022-10-04T12:53:21;31.77;;;5.90;;
7881;SDS011;3986;41.884;23.466;2022-10-04T12:56:10;41.65;;;5.95;;
7881;SDS011;3986;41.884;23.466;2022-10-04T12:58:53;27.73;;;4.82;;
7881;SDS011;3986;41.884;23.466;2022-10-04T13:01:32;16.77;;;4.50;;
7881;SDS011;3986;41.884;23.466;2022-10-04T13:04:10;18.10;;;4.60;;
7881;SDS011;3986;41.884;23.466;2022-10-04T13:06:51;32.60;;;5.40;;
7881;SDS011;3986;41.884;23.466;2022-10-04T13:09:31;58.33;;;6.82;;
7881;SDS011;3986;41.884;23.466;2022-10-04T13:12:13;15.77;;;4.57;;
7881;SDS011;3986;41.884;23.466;2022-10-04T13:14:58;15.90;;;4.47;;
7881;SDS011;3986;41.884;23.466;2022-10-04T13:17:40;128.63;;;12.18;;
7881;SDS011;3986;41.884;23.466;2022-10-04T13:20:24;30.55;;;5.38;;
7881;SDS011;3986;41.884;23.466;2022-10-04T13:23:12;27.80;;;5.50;;
7881;SDS011;3986;41.884;23.466;2022-10-04T13:25:55;56.63;;;7.15;;
7881;SDS011;3986;41.884;23.466;2022-10-04T13:28:46;10.20;;;4.43;;
7881;SDS011;3986;41.884;23.466;2022-10-04T13:31:19;44.17;;;6.22;;
7881;SDS011;3986;41.884;23.466;2022-10-04T13:33:59;20.50;;;5.35;;
7881;SDS011;3986;41.884;23.466;2022-10-04T13:36:37;32.33;;;6.55;;
7881;SDS011;3986;41.884;23.466;2022-10-04T13:39:20;32.28;;;5.72;;
7881;SDS011;3986;41.884;23.466;2022-10-04T13:42:11;14.55;;;4.28;;
7881;SDS011;3986;41.884;23.466;2022-10-04T13:44:54;15.65;;;4.65;;
7881;SDS011;3986;41.884;23.466;2022-10-04T13:50:37;21.23;;;5.35;;
7881;SDS011;3986;41.884;23.466;2022-10-04T13:53:20;19.98;;;5.15;;
7881;SDS011;3986;41.884;23.466;2022-10-04T13:56:17;66.03;;;7.85;;
7881;SDS011;3986;41.884;23.466;2022-10-04T13:59:06;59.67;;;8.73;;
7881;SDS011;3986;41.884;23.466;2022-10-04T14:07:44;36.85;;;6.90;;
7881;SDS011;3986;41.884;23.466;2022-10-04T14:10:36;36.80;;;8.35;;
7881;SDS011;3986;41.884;23.466;2022-10-04T14:16:55;30.20;;;6.72;;
7881;SDS011;3986;41.884;23.466;2022-10-04T14:19:45;40.63;;;7.40;;
7881;SDS011;3986;41.884;23.466;2022-10-04T14:22:32;58.97;;;8.35;;
7881;SDS011;3986;41.884;23.466;2022-10-04T14:28:44;60.85;;;10.35;;
7881;SDS011;3986;41.884;23.466;2022-10-04T14:31:46;53.30;;;10.38;;
7881;SDS011;3986;41.884;23.466;2022-10-04T14:37:39;49.47;;;10.35;;
7881;SDS011;3986;41.884;23.466;2022-10-04T14:40:55;93.10;;;11.45;;
7881;SDS011;3986;41.884;23.466;2022-10-04T14:43:56;77.00;;;10.43;;
7881;SDS011;3986;41.884;23.466;2022-10-04T14:46:38;85.93;;;10.48;;
7881;SDS011;3986;41.884;23.466;2022-10-04T14:49:15;55.70;;;8.40;;
7881;SDS011;3986;41.884;23.466;2022-10-04T14:54:49;89.80;;;9.68;;
7881;SDS011;3986;41.884;23.466;2022-10-04T14:57:20;31.67;;;7.75;;
7881;SDS011;3986;41.884;23.466;2022-10-04T15:00:04;70.97;;;11.13;;
7881;SDS011;3986;41.884;23.466;2022-10-04T15:02:45;53.03;;;9.77;;
7881;SDS011;3986;41.884;23.466;2022-10-04T15:08:34;54.93;;;10.50;;
7881;SDS011;3986;41.884;23.466;2022-10-04T15:11:11;30.20;;;8.87;;
7881;SDS011;3986;41.884;23.466;2022-10-04T15:13:47;42.55;;;9.85;;
7881;SDS011;3986;41.884;23.466;2022-10-04T15:16:21;56.10;;;11.68;;
7881;SDS011;3986;41.884;23.466;2022-10-04T15:19:02;102.70;;;14.80;;
7881;SDS011;3986;41.884;23.466;2022-10-04T15:21:34;77.93;;;15.07;;
7881;SDS011;3986;41.884;23.466;2022-10-04T15:24:19;69.13;;;19.13;;
7881;SDS011;3986;41.884;23.466;2022-10-04T15:26:52;84.60;;;27.43;;
7881;SDS011;3986;41.884;23.466;2022-10-04T15:29:51;75.07;;;33.00;;
7881;SDS011;3986;41.884;23.466;2022-10-04T15:32:28;53.57;;;23.90;;
7881;SDS011;3986;41.884;23.466;2022-10-04T15:35:06;107.33;;;19.73;;
7881;SDS011;3986;41.884;23.466;2022-10-04T15:37:47;25.47;;;8.43;;
7881;SDS011;3986;41.884;23.466;2022-10-04T15:40:24;34.53;;;9.10;;
7881;SDS011;3986;41.884;23.466;2022-10-04T15:43:02;61.47;;;14.20;;
7881;SDS011;3986;41.884;23.466;2022-10-04T15:45:54;47.22;;;13.68;;
7881;SDS011;3986;41.884;23.466;2022-10-04T15:48:52;30.20;;;11.37;;
7881;SDS011;3986;41.884;23.466;2022-10-04T15:51:39;30.15;;;13.70;;
7881;SDS011;3986;41.884;23.466;2022-10-04T15:54:30;31.63;;;12.55;;
7881;SDS011;3986;41.884;23.466;2022-10-04T15:57:19;22.40;;;11.02;;
7881;SDS011;3986;41.884;23.466;2022-10-04T15:59:55;43.67;;;11.60;;
7881;SDS011;3986;41.884;23.466;2022-10-04T16:02:34;38.83;;;14.27;;
7881;SDS011;3986;41.884;23.466;2022-10-04T16:05:13;46.53;;;16.23;;
7881;SDS011;3986;41.884;23.466;2022-10-04T16:07:51;19.33;;;9.93;;
7881;SDS011;3986;41.884;23.466;2022-10-04T16:10:29;45.23;;;11.10;;
7881;SDS011;3986;41.884;23.466;2022-10-04T16:13:20;32.07;;;10.00;;
7881;SDS011;3986;41.884;23.466;2022-10-04T16:18:58;24.70;;;12.80;;
7881;SDS011;3986;41.884;23.466;2022-10-04T16:21:36;42.17;;;14.97;;
7881;SDS011;3986;41.884;23.466;2022-10-04T16:27:12;55.57;;;20.20;;
7881;SDS011;3986;41.884;23.466;2022-10-04T16:30:11;41.17;;;18.00;;
7881;SDS011;3986;41.884;23.466;2022-10-04T16:32:44;22.20;;;13.77;;
7881;SDS011;3986;41.884;23.466;2022-10-04T16:35:25;183.77;;;25.55;;
7881;SDS011;3986;41.884;23.466;2022-10-04T16:37:56;48.30;;;17.67;;
7881;SDS011;3986;41.884;23.466;2022-10-04T16:40:34;48.07;;;17.93;;
7881;SDS011;3986;41.884;23.466;2022-10-04T16:43:19;57.57;;;13.53;;
7881;SDS011;3986;41.884;23.466;2022-10-04T16:46:08;61.97;;;19.20;;
7881;SDS011;3986;41.884;23.466;2022-10-04T16:48:45;101.07;;;20.30;;
7881;SDS011;3986;41.884;23.466;2022-10-04T16:51:20;24.97;;;14.20;;
7881;SDS011;3986;41.884;23.466;2022-10-04T16:54:07;43.07;;;14.63;;
7881;SDS011;3986;41.884;23.466;2022-10-04T16:57:13;96.23;;;16.40;;
7881;SDS011;3986;41.884;23.466;2022-10-04T16:59:48;45.00;;;12.80;;
7881;SDS011;3986;41.884;23.466;2022-10-04T17:02:22;48.30;;;13.40;;
7881;SDS011;3986;41.884;23.466;2022-10-04T17:05:03;61.80;;;16.00;;
7881;SDS011;3986;41.884;23.466;2022-10-04T17:08:08;37.07;;;17.77;;
7881;SDS011;3986;41.884;23.466;2022-10-04T17:13:58;56.60;;;22.43;;
7881;SDS011;3986;41.884;23.466;2022-10-04T17:16:30;49.67;;;20.83;;
7881;SDS011;3986;41.884;23.466;2022-10-04T17:19:16;32.97;;;15.57;;
7881;SDS011;3986;41.884;23.466;2022-10-04T17:21:57;34.50;;;20.60;;
7881;SDS011;3986;41.884;23.466;2022-10-04T17:24:33;38.10;;;15.47;;
7881;SDS011;3986;41.884;23.466;2022-10-04T17:27:18;59.20;;;15.57;;
7881;SDS011;3986;41.884;23.466;2022-10-04T17:29:54;31.27;;;12.53;;
7881;SDS011;3986;41.884;23.466;2022-10-04T17:32:32;35.63;;;12.53;;
7881;SDS011;3986;41.884;23.466;2022-10-04T17:35:14;26.87;;;16.83;;
7881;SDS011;3986;41.884;23.466;2022-10-04T17:37:49;52.13;;;17.17;;
7881;SDS011;3986;41.884;23.466;2022-10-04T17:40:32;86.97;;;22.10;;
7881;SDS011;3986;41.884;23.466;2022-10-04T17:43:13;44.17;;;19.27;;
7881;SDS011;3986;41.884;23.466;2022-10-04T17:45:58;40.00;;;19.03;;
7881;SDS011;3986;41.884;23.466;2022-10-04T17:48:39;28.67;;;17.10;;
7881;SDS011;3986;41.884;23.466;2022-10-04T17:51:39;47.27;;;21.10;;
7881;SDS011;3986;41.884;23.466;2022-10-04T17:54:27;42.70;;;16.67;;
7881;SDS011;3986;41.884;23.466;2022-10-04T17:57:17;39.77;;;19.17;;
7881;SDS011;3986;41.884;23.466;2022-10-04T17:59:51;50.67;;;18.20;;
7881;SDS011;3986;41.884;23.466;2022-10-04T18:02:25;39.77;;;18.90;;
7881;SDS011;3986;41.884;23.466;2022-10-04T18:04:59;53.47;;;20.63;;